createdAt,value
2023-04-11T00:00:31.473Z,54.69
2023-04-11T00:03:00.084Z,54.72
2023-04-11T00:05:28.509Z,55.40
2023-04-11T00:07:55.885Z,55.54
2023-04-11T00:10:23.578Z,55.39
2023-04-11T00:12:51.143Z,55.32
2023-04-11T00:15:20.042Z,55.57
2023-04-11T00:17:49.103Z,55.24
2023-04-11T00:20:16.868Z,55.09
2023-04-11T00:22:44.286Z,55.80
2023-04-11T00:25:12.242Z,55.77
2023-04-11T00:27:39.833Z,55.47
2023-04-11T00:30:08.040Z,55.50
2023-04-11T00:32:35.813Z,55.58
2023-04-11T00:35:03.365Z,55.64
2023-04-11T00:37:35.926Z,55.62
2023-04-11T00:40:05.739Z,55.94
2023-04-11T00:42:33.716Z,55.81
2023-04-11T00:45:01.192Z,55.82
2023-04-11T00:47:29.458Z,55.80
2023-04-11T00:49:56.839Z,55.86
2023-04-11T00:52:24.255Z,55.77
2023-04-11T00:54:52.043Z,55.75
2023-04-11T00:57:19.425Z,55.70
2023-04-11T00:59:51.059Z,55.98
2023-04-11T01:02:18.936Z,56.20
2023-04-11T01:04:46.563Z,56.16
2023-04-11T01:07:14.298Z,56.00
2023-04-11T01:09:42.239Z,55.94
2023-04-11T01:12:10.734Z,56.18
2023-04-11T01:14:38.490Z,55.75
2023-04-11T01:17:07.877Z,55.99
2023-04-11T01:19:35.616Z,56.08
2023-04-11T01:22:03.342Z,56.46
2023-04-11T01:24:31.684Z,56.39
2023-04-11T01:26:59.356Z,56.74
2023-04-11T01:29:26.728Z,56.52
2023-04-11T01:31:54.565Z,56.61
2023-04-11T01:34:22.685Z,56.21
2023-04-11T01:36:50.234Z,56.38
2023-04-11T01:39:17.891Z,56.68
2023-04-11T01:41:46.075Z,56.57
2023-04-11T01:44:13.705Z,56.67
2023-04-11T01:46:43.091Z,56.44
2023-04-11T01:49:10.547Z,56.30
2023-04-11T01:51:37.958Z,56.26
2023-04-11T01:54:05.820Z,56.63
2023-04-11T01:56:33.258Z,56.75
2023-04-11T01:59:01.604Z,56.59
2023-04-11T02:01:29.387Z,56.73
2023-04-11T02:03:58.229Z,56.49
2023-04-11T02:06:27.460Z,56.72
2023-04-11T02:08:55.306Z,56.75
2023-04-11T02:11:23.163Z,56.97
2023-04-11T02:13:51.772Z,56.95
2023-04-11T02:16:20.729Z,56.82
2023-04-11T02:18:48.859Z,56.72
2023-04-11T02:21:16.287Z,57.35
2023-04-11T02:23:43.773Z,56.71
2023-04-11T02:26:13.097Z,56.63
2023-04-11T02:28:40.488Z,56.90
2023-04-11T02:31:08.088Z,56.98
2023-04-11T02:33:35.909Z,57.03
2023-04-11T02:36:03.505Z,57.17
2023-04-11T02:38:30.981Z,57.61
2023-04-11T02:41:00.177Z,57.60
2023-04-11T02:43:27.594Z,57.42
2023-04-11T02:46:01.973Z,57.64
2023-04-11T02:48:37.737Z,57.70
2023-04-11T02:51:05.693Z,57.53
2023-04-11T02:53:33.197Z,57.65
2023-04-11T02:56:01.401Z,57.47
2023-04-11T02:58:29.056Z,57.61
2023-04-11T03:00:57.456Z,57.88
2023-04-11T03:03:26.384Z,57.53
2023-04-11T03:05:54.326Z,57.63
2023-04-11T03:08:22.136Z,57.84
2023-04-11T03:10:50.184Z,57.87
2023-04-11T03:13:17.685Z,57.81
2023-04-11T03:15:45.429Z,57.82
2023-04-11T03:18:13.471Z,57.84
2023-04-11T03:20:41.730Z,58.05
2023-04-11T03:23:10.663Z,58.31
2023-04-11T03:25:40.581Z,58.08
2023-04-11T03:28:08.069Z,58.43
2023-04-11T03:30:35.502Z,58.43
2023-04-11T03:33:03.390Z,58.26
2023-04-11T03:35:31.362Z,58.41
2023-04-11T03:37:58.982Z,58.72
2023-04-11T03:40:26.743Z,58.72
2023-04-11T03:42:54.891Z,58.46
2023-04-11T03:45:22.409Z,58.68
2023-04-11T03:47:52.809Z,58.54
2023-04-11T03:50:21.801Z,58.87
2023-04-11T03:52:50.495Z,58.67
2023-04-11T03:55:18.516Z,58.41
2023-04-11T03:57:46.306Z,58.56
2023-04-11T04:00:14.844Z,58.34
2023-04-11T04:02:42.641Z,58.29
2023-04-11T04:05:11.583Z,58.62
2023-04-11T04:07:39.972Z,58.53
2023-04-11T04:10:08.182Z,58.58
2023-04-11T04:12:36.016Z,58.67
2023-04-11T04:15:04.245Z,58.70
2023-04-11T04:17:31.867Z,58.30
2023-04-11T04:19:59.918Z,58.29
2023-04-11T04:22:29.757Z,58.12
2023-04-11T04:25:00.418Z,57.90
2023-04-11T04:27:28.458Z,58.04
2023-04-11T04:29:59.987Z,57.49
2023-04-11T04:32:32.654Z,57.55
2023-04-11T04:35:01.513Z,57.74
2023-04-11T04:37:29.176Z,57.84
2023-04-11T04:40:02.154Z,58.10
2023-04-11T04:42:31.331Z,58.59
2023-04-11T04:45:00.507Z,58.27
2023-04-11T04:47:33.293Z,58.40
2023-04-11T04:50:01.387Z,58.21
2023-04-11T04:52:29.482Z,58.63
2023-04-11T04:54:58.175Z,59.25
2023-04-11T04:57:27.736Z,59.66
2023-04-11T04:59:56.787Z,59.69
2023-04-11T05:02:26.591Z,59.67
2023-04-11T05:04:55.453Z,59.61
2023-04-11T05:07:23.554Z,59.75
2023-04-11T05:09:51.214Z,59.47
2023-04-11T05:12:21.420Z,59.26
2023-04-11T05:14:48.842Z,59.32
2023-04-11T05:17:16.373Z,59.07
2023-04-11T05:19:44.228Z,58.96
2023-04-11T05:22:11.728Z,58.48
2023-04-11T05:24:39.599Z,58.47
2023-04-11T05:27:07.507Z,58.03
2023-04-11T05:29:35.312Z,57.47
2023-04-11T05:32:03.045Z,56.91
2023-04-11T05:34:32.350Z,55.82
2023-04-11T05:36:59.998Z,55.73
2023-04-11T05:39:27.455Z,55.09
2023-04-11T05:41:57.112Z,55.28
2023-04-11T05:44:24.525Z,54.70
2023-04-11T05:46:51.882Z,53.33
2023-04-11T05:49:19.614Z,53.36
2023-04-11T05:51:46.974Z,53.80
2023-04-11T05:54:20.959Z,53.57
2023-04-11T05:56:48.658Z,53.23
2023-04-11T05:59:17.014Z,52.45
2023-04-11T06:01:46.176Z,52.58
2023-04-11T06:04:14.026Z,52.49
2023-04-11T06:06:42.899Z,51.69
2023-04-11T06:09:10.829Z,51.69
2023-04-11T06:11:38.539Z,52.03
2023-04-11T06:14:05.974Z,52.00
2023-04-11T06:16:36.668Z,51.78
2023-04-11T06:19:05.089Z,51.84
2023-04-11T06:21:32.886Z,51.58
2023-04-11T06:24:09.244Z,51.35
2023-04-11T06:26:37.373Z,50.61
2023-04-11T06:29:05.750Z,50.29
2023-04-11T06:31:33.880Z,50.58
2023-04-11T06:34:01.923Z,50.42
2023-04-11T06:36:30.277Z,50.26
2023-04-11T06:38:57.691Z,61.51
2023-04-11T06:41:25.466Z,52.89
2023-04-11T06:43:53.023Z,49.71
2023-04-11T06:46:20.429Z,49.32
2023-04-11T06:48:48.094Z,49.27
2023-04-11T06:51:15.517Z,48.52
2023-04-11T06:53:42.896Z,48.79
2023-04-11T06:56:10.806Z,48.78
2023-04-11T06:58:38.227Z,47.67
2023-04-11T07:01:06.302Z,47.28
2023-04-11T07:03:34.131Z,47.42
2023-04-11T07:06:01.711Z,47.01
2023-04-11T07:08:29.465Z,46.54
2023-04-11T07:10:57.176Z,45.35
2023-04-11T07:13:24.890Z,45.18
2023-04-11T07:15:52.397Z,45.61
2023-04-11T07:18:20.312Z,44.75
2023-04-11T07:20:48.642Z,44.86
2023-04-11T07:23:16.095Z,44.38
2023-04-11T07:25:45.024Z,43.13
2023-04-11T07:28:12.992Z,42.43
2023-04-11T07:30:41.442Z,42.54
2023-04-11T07:33:09.361Z,41.87
2023-04-11T07:35:38.407Z,42.06
2023-04-11T07:38:06.308Z,42.16
2023-04-11T07:40:34.013Z,42.30
2023-04-11T07:43:01.874Z,42.57
2023-04-11T07:45:29.465Z,42.99
2023-04-11T07:47:57.137Z,42.88
2023-04-11T07:50:24.589Z,42.61
2023-04-11T07:52:52.095Z,43.28
2023-04-11T07:55:19.764Z,42.70
2023-04-11T07:57:47.197Z,43.01
2023-04-11T08:00:22.175Z,42.10
2023-04-11T08:02:51.087Z,42.07
2023-04-11T08:05:19.246Z,41.82
2023-04-11T08:07:47.018Z,41.25
2023-04-11T08:10:14.823Z,41.86
2023-04-11T08:12:42.253Z,41.91
2023-04-11T08:15:09.981Z,42.04
2023-04-11T08:17:38.396Z,42.66
2023-04-11T08:20:09.163Z,42.89
2023-04-11T08:22:36.622Z,42.48
2023-04-11T08:25:04.935Z,42.06
2023-04-11T08:27:32.346Z,41.84
2023-04-11T08:29:59.929Z,41.99
2023-04-11T08:32:27.698Z,42.07
2023-04-11T08:34:55.250Z,41.83
2023-04-11T08:37:22.633Z,42.13
2023-04-11T08:39:50.430Z,41.78
2023-04-11T08:42:28.591Z,41.85
2023-04-11T08:44:58.702Z,41.86
2023-04-11T08:47:26.530Z,41.97
2023-04-11T08:49:54.388Z,41.72
2023-04-11T08:52:23.359Z,41.85
2023-04-11T08:54:57.354Z,41.56
2023-04-11T08:57:31.499Z,42.16
2023-04-11T09:00:00.529Z,42.27
2023-04-11T09:02:28.344Z,41.94
2023-04-11T09:04:57.720Z,41.95
2023-04-11T09:07:25.456Z,42.35
2023-04-11T09:09:53.281Z,42.21
2023-04-11T09:12:29.587Z,42.02
2023-04-11T09:14:57.546Z,42.45
2023-04-11T09:17:25.084Z,42.05
2023-04-11T09:19:52.499Z,42.37
2023-04-11T09:22:20.425Z,42.90
2023-04-11T09:25:02.114Z,42.97
2023-04-11T09:27:29.864Z,42.13
2023-04-11T09:29:57.235Z,41.74
2023-04-11T09:32:34.675Z,42.45
2023-04-11T09:35:25.197Z,42.26
2023-04-11T09:37:57.491Z,41.95
2023-04-11T09:40:26.888Z,41.95
2023-04-11T09:43:02.405Z,41.94
2023-04-11T09:45:38.162Z,41.97
2023-04-11T09:48:08.998Z,41.74
2023-04-11T09:50:38.542Z,40.65
2023-04-11T09:53:11.039Z,39.12
2023-04-11T09:55:39.629Z,39.54
2023-04-11T09:58:07.907Z,40.17
2023-04-11T10:00:36.436Z,39.26
2023-04-11T10:03:04.223Z,38.88
2023-04-11T10:05:31.921Z,38.49
2023-04-11T10:08:05.654Z,39.40
2023-04-11T10:10:33.497Z,39.10
2023-04-11T10:13:00.958Z,38.99
2023-04-11T10:15:29.021Z,38.80
2023-04-11T10:18:13.606Z,38.78
2023-04-11T10:20:50.530Z,39.45
2023-04-11T10:23:18.244Z,38.61
2023-04-11T10:25:50.503Z,39.25
2023-04-11T10:28:36.026Z,38.80
2023-04-11T10:31:13.202Z,39.31
2023-04-11T10:34:16.787Z,38.09
2023-04-11T10:37:07.738Z,38.72
2023-04-11T10:39:53.774Z,37.86
2023-04-11T10:42:27.943Z,38.73
2023-04-11T10:45:21.937Z,38.63
2023-04-11T10:47:58.611Z,38.85
2023-04-11T10:50:26.430Z,37.75
2023-04-11T10:52:58.020Z,37.53
2023-04-11T10:55:27.196Z,38.27
2023-04-11T10:58:08.721Z,37.74
2023-04-11T11:00:51.667Z,36.85
2023-04-11T11:03:20.101Z,36.28
2023-04-11T11:05:57.365Z,35.83
2023-04-11T11:08:34.562Z,36.79
2023-04-11T11:11:06.927Z,36.09
2023-04-11T11:13:51.793Z,35.18
2023-04-11T11:16:22.035Z,34.83
2023-04-11T11:18:54.533Z,34.15
2023-04-11T11:21:28.900Z,34.73
2023-04-11T11:24:01.002Z,36.25
2023-04-11T11:26:43.362Z,37.74
2023-04-11T11:29:11.339Z,34.97
2023-04-11T11:31:41.782Z,34.89
2023-04-11T11:34:22.659Z,34.82
2023-04-11T11:36:51.176Z,34.71
2023-04-11T11:39:20.372Z,34.30
2023-04-11T11:41:49.378Z,35.03
2023-04-11T11:44:28.175Z,35.28
2023-04-11T11:47:02.336Z,34.56
2023-04-11T11:49:56.582Z,33.71
2023-04-11T11:52:33.891Z,33.98
2023-04-11T11:55:03.473Z,34.18
2023-04-11T11:57:31.941Z,35.31
2023-04-11T12:00:01.402Z,34.75
2023-04-11T12:02:29.312Z,34.86
2023-04-11T12:05:00.109Z,33.91
2023-04-11T12:07:32.727Z,32.83
2023-04-11T12:10:02.009Z,33.53
2023-04-11T12:12:36.914Z,32.97
2023-04-11T12:15:14.886Z,33.09
2023-04-11T12:17:43.072Z,33.75
2023-04-11T12:20:11.251Z,33.71
2023-04-11T12:22:38.929Z,33.42
2023-04-11T12:25:08.103Z,34.22
2023-04-11T12:27:40.293Z,33.99
2023-04-11T12:30:08.877Z,34.27
2023-04-11T12:32:36.950Z,33.94
2023-04-11T12:35:05.629Z,34.18
2023-04-11T12:37:33.604Z,33.32
2023-04-11T12:40:01.781Z,32.28
2023-04-11T12:42:29.211Z,33.52
2023-04-11T12:44:56.603Z,33.27
2023-04-11T12:47:24.355Z,31.75
2023-04-11T12:49:51.993Z,31.65
2023-04-11T12:52:19.352Z,32.04
2023-04-11T12:54:47.090Z,30.47
2023-04-11T12:57:14.597Z,31.24
2023-04-11T12:59:42.080Z,30.80
2023-04-11T13:02:09.876Z,30.34
2023-04-11T13:04:37.392Z,31.64
2023-04-11T13:07:04.924Z,31.69
2023-04-11T13:09:34.271Z,31.12
2023-04-11T13:12:01.993Z,31.43
2023-04-11T13:14:29.790Z,30.79
2023-04-11T13:16:57.612Z,31.14
2023-04-11T13:19:25.071Z,31.09
2023-04-11T13:21:52.706Z,33.37
2023-04-11T13:24:20.333Z,34.88
2023-04-11T13:26:47.715Z,33.22
2023-04-11T13:29:15.170Z,31.08
2023-04-11T13:31:42.993Z,33.19
2023-04-11T13:34:10.830Z,31.77
2023-04-11T13:36:38.315Z,31.56
2023-04-11T13:39:06.083Z,31.76
2023-04-11T13:41:33.454Z,31.74
2023-04-11T13:44:00.861Z,31.46
2023-04-11T13:46:28.590Z,31.99
2023-04-11T13:48:56.283Z,32.07
2023-04-11T13:51:23.964Z,31.90
2023-04-11T13:53:51.633Z,32.43
2023-04-11T13:56:20.535Z,32.78
2023-04-11T13:58:47.963Z,32.98
2023-04-11T14:01:15.623Z,32.59
2023-04-11T14:03:44.809Z,32.97
2023-04-11T14:06:12.402Z,32.62
2023-04-11T14:08:40.066Z,32.35
2023-04-11T14:11:07.834Z,32.01
2023-04-11T14:13:35.234Z,32.88
2023-04-11T14:16:08.921Z,33.51
2023-04-11T14:18:37.094Z,33.83
2023-04-11T14:21:08.198Z,34.19
2023-04-11T14:23:35.872Z,34.50
2023-04-11T14:26:03.660Z,34.79
2023-04-11T14:28:31.104Z,35.65
2023-04-11T14:30:58.591Z,36.25
2023-04-11T14:33:27.093Z,36.22
2023-04-11T14:35:54.544Z,36.84
2023-04-11T14:38:21.972Z,37.74
2023-04-11T14:40:49.693Z,37.95
2023-04-11T14:43:17.092Z,39.29
2023-04-11T14:45:44.489Z,39.27
2023-04-11T14:48:12.223Z,40.05
2023-04-11T14:50:39.759Z,41.42
2023-04-11T14:53:07.231Z,43.44
2023-04-11T14:55:34.897Z,45.85
2023-04-11T14:58:02.353Z,47.85
2023-04-11T15:00:29.765Z,50.85
2023-04-11T15:02:57.775Z,53.87
2023-04-11T15:05:25.706Z,55.28
2023-04-11T15:07:53.178Z,56.82
2023-04-11T15:10:22.848Z,58.83
2023-04-11T15:12:50.751Z,59.83
2023-04-11T15:15:18.441Z,61.60
2023-04-11T15:17:47.665Z,62.20
2023-04-11T15:20:15.973Z,62.89
2023-04-11T15:22:45.084Z,63.13
2023-04-11T15:25:14.906Z,63.22
2023-04-11T15:27:42.719Z,63.64
2023-04-11T15:30:11.299Z,63.63
2023-04-11T15:32:43.695Z,63.63
2023-04-11T15:35:11.290Z,63.95
2023-04-11T15:37:38.883Z,63.98
2023-04-11T15:40:07.805Z,63.80
2023-04-11T15:42:36.931Z,64.81
2023-04-11T15:45:05.177Z,65.18
2023-04-11T15:47:33.869Z,65.49
2023-04-11T15:50:04.083Z,65.98
2023-04-11T15:52:31.783Z,65.24
2023-04-11T15:54:59.222Z,65.39
2023-04-11T15:57:28.291Z,66.02
2023-04-11T15:59:56.061Z,65.17
2023-04-11T16:02:23.925Z,65.43
2023-04-11T16:04:54.043Z,65.18
2023-04-11T16:07:23.306Z,64.70
2023-04-11T16:09:50.850Z,64.43
2023-04-11T16:12:18.698Z,63.52
2023-04-11T16:14:46.381Z,63.57
2023-04-11T16:17:18.944Z,63.40
2023-04-11T16:19:47.287Z,63.26
2023-04-11T16:22:14.966Z,63.03
2023-04-11T16:24:42.412Z,62.86
2023-04-11T16:27:10.094Z,62.75
2023-04-11T16:29:37.570Z,63.63
2023-04-11T16:32:05.118Z,63.08
2023-04-11T16:34:32.930Z,62.31
2023-04-11T16:37:01.237Z,62.05
2023-04-11T16:39:28.675Z,61.57
2023-04-11T16:41:57.219Z,62.66
2023-04-11T16:44:24.563Z,62.07
2023-04-11T16:46:51.993Z,61.74
2023-04-11T16:49:19.718Z,61.53
2023-04-11T16:51:47.188Z,61.61
2023-04-11T16:54:15.041Z,61.44
2023-04-11T16:56:43.184Z,61.40
2023-04-11T16:59:12.225Z,61.55
2023-04-11T17:01:41.107Z,61.14
2023-04-11T17:04:09.411Z,60.92
2023-04-11T17:06:37.083Z,60.88
2023-04-11T17:09:06.430Z,60.98
2023-04-11T17:11:35.646Z,61.11
2023-04-11T17:14:04.150Z,61.23
2023-04-11T17:16:31.671Z,61.73
2023-04-11T17:18:59.303Z,61.77
2023-04-11T17:21:27.407Z,61.38
2023-04-11T17:23:54.801Z,61.14
2023-04-11T17:26:22.514Z,61.08
2023-04-11T17:28:49.993Z,61.22
2023-04-11T17:31:18.759Z,60.81
2023-04-11T17:33:46.546Z,61.25
2023-04-11T17:36:14.153Z,61.85
2023-04-11T17:38:43.351Z,61.14
2023-04-11T17:41:14.937Z,61.43
2023-04-11T17:43:43.601Z,61.41
2023-04-11T17:46:12.405Z,62.49
2023-04-11T17:48:39.996Z,61.82
2023-04-11T17:51:07.445Z,62.29
2023-04-11T17:53:35.136Z,62.46
2023-04-11T17:56:04.610Z,62.14
2023-04-11T17:58:32.195Z,61.90
2023-04-11T18:00:59.897Z,62.35
2023-04-11T18:03:28.241Z,62.27
2023-04-11T18:05:56.669Z,62.75
2023-04-11T18:08:39.177Z,62.26
2023-04-11T18:11:14.347Z,62.96
2023-04-11T18:13:44.652Z,62.50
2023-04-11T18:16:12.404Z,61.60
2023-04-11T18:18:40.131Z,63.14
2023-04-11T18:21:08.126Z,63.37
2023-04-11T18:23:35.873Z,63.25
2023-04-11T18:26:03.663Z,61.78
2023-04-11T18:28:31.043Z,61.77
2023-04-11T18:30:58.543Z,62.87
2023-04-11T18:33:26.295Z,63.25
2023-04-11T18:35:53.712Z,62.59
2023-04-11T18:38:21.248Z,61.80
2023-04-11T18:40:49.478Z,61.47
2023-04-11T18:43:17.655Z,61.33
2023-04-11T18:45:45.265Z,61.90
2023-04-11T18:48:14.046Z,61.08
2023-04-11T18:50:43.007Z,61.34
2023-04-11T18:55:40.657Z,61.01
2023-04-11T18:58:09.763Z,60.58
2023-04-11T19:00:39.637Z,60.63
2023-04-11T19:03:15.140Z,60.66
2023-04-11T19:05:44.057Z,59.64
2023-04-11T19:08:11.901Z,59.37
2023-04-11T19:10:39.303Z,59.19
2023-04-11T19:13:06.941Z,58.91
2023-04-11T19:15:34.673Z,58.56
2023-04-11T19:18:02.441Z,58.85
2023-04-11T19:20:29.940Z,58.48
2023-04-11T19:22:57.885Z,58.91
2023-04-11T19:25:25.599Z,58.73
2023-04-11T19:27:53.082Z,59.54
2023-04-11T19:30:21.034Z,59.39
2023-04-11T19:32:48.656Z,59.12
2023-04-11T19:35:17.141Z,59.15
2023-04-11T19:37:44.839Z,58.53
2023-04-11T19:40:13.766Z,57.53
2023-04-11T19:42:42.146Z,57.93
2023-04-11T19:45:11.494Z,58.05
2023-04-11T19:47:40.260Z,57.97
2023-04-11T19:50:13.213Z,57.95
2023-04-11T19:52:42.202Z,57.88
2023-04-11T19:55:11.545Z,58.13
2023-04-11T19:57:39.093Z,57.93
2023-04-11T20:00:17.054Z,57.39
2023-04-11T20:02:46.708Z,57.60
2023-04-11T20:05:16.473Z,56.86
2023-04-11T20:07:45.152Z,56.98
2023-04-11T20:10:14.140Z,57.81
2023-04-11T20:12:41.671Z,57.35
2023-04-11T20:15:09.594Z,57.48
2023-04-11T20:17:37.333Z,56.94
2023-04-11T20:20:06.032Z,56.87
2023-04-11T20:22:33.526Z,58.97
2023-04-11T20:25:01.432Z,59.98
2023-04-11T20:27:28.841Z,64.24
2023-04-11T20:29:56.764Z,65.18
2023-04-11T20:32:24.577Z,67.47
2023-04-11T20:34:52.246Z,67.72
2023-04-11T20:37:22.596Z,67.50
2023-04-11T20:39:51.538Z,67.81
2023-04-11T20:42:20.445Z,67.12
2023-04-11T20:44:47.974Z,69.01
2023-04-11T20:47:15.632Z,67.53
2023-04-11T20:49:45.648Z,66.39
2023-04-11T20:52:13.279Z,66.06
2023-04-11T20:54:41.039Z,65.52
2023-04-11T20:57:08.496Z,64.91
2023-04-11T20:59:38.086Z,64.29
2023-04-11T21:02:05.938Z,63.44
2023-04-11T21:04:33.581Z,62.69
2023-04-11T21:07:01.405Z,62.58
2023-04-11T21:09:29.228Z,62.75
2023-04-11T21:11:56.632Z,62.87
2023-04-11T21:14:24.326Z,62.66
2023-04-11T21:16:52.296Z,62.40
2023-04-11T21:19:19.750Z,61.46
2023-04-11T21:21:47.149Z,62.17
2023-04-11T21:24:14.835Z,61.71
2023-04-11T21:26:42.496Z,62.83
2023-04-11T21:29:12.057Z,62.81
2023-04-11T21:31:39.730Z,62.78
2023-04-11T21:34:07.181Z,62.56
2023-04-11T21:36:34.688Z,62.40
2023-04-11T21:39:02.401Z,63.45
2023-04-11T21:41:29.872Z,63.90
2023-04-11T21:43:57.376Z,63.20
2023-04-11T21:46:25.588Z,64.14
2023-04-11T21:48:53.066Z,64.41
2023-04-11T21:51:20.635Z,64.97
2023-04-11T21:53:48.277Z,64.48
2023-04-11T21:56:15.976Z,64.35
2023-04-11T21:58:43.393Z,66.23
2023-04-11T22:01:11.733Z,65.29
2023-04-11T22:03:42.177Z,65.15
2023-04-11T22:06:10.435Z,65.50
2023-04-11T22:08:42.203Z,66.25
2023-04-11T22:11:14.628Z,67.11
2023-04-11T22:13:46.251Z,66.96
2023-04-11T22:16:14.261Z,66.54
2023-04-11T22:18:47.455Z,66.07
2023-04-11T22:21:21.934Z,66.09
2023-04-11T22:23:54.462Z,65.26
2023-04-11T22:26:34.877Z,66.10
2023-04-11T22:29:05.630Z,64.99
2023-04-11T22:31:38.683Z,64.33
2023-04-11T22:34:08.839Z,63.61
2023-04-11T22:36:36.929Z,62.69
2023-04-11T22:39:07.267Z,62.87
2023-04-11T22:41:35.965Z,62.52
2023-04-11T22:44:04.006Z,62.00
2023-04-11T22:46:33.962Z,62.29
2023-04-11T22:49:01.626Z,61.76
2023-04-11T22:51:30.184Z,61.35
2023-04-11T22:53:58.058Z,60.88
2023-04-11T22:56:25.734Z,61.30
2023-04-11T22:58:53.395Z,61.27
2023-04-11T23:01:21.058Z,59.92
2023-04-11T23:03:48.479Z,59.96
2023-04-11T23:06:16.466Z,60.12
2023-04-11T23:08:43.887Z,60.26
2023-04-11T23:11:11.484Z,60.69
2023-04-11T23:13:39.188Z,59.49
2023-04-11T23:16:09.032Z,60.04
2023-04-11T23:18:36.641Z,60.99
2023-04-11T23:21:04.404Z,61.80
2023-04-11T23:23:31.763Z,62.32
2023-04-11T23:25:59.977Z,62.01
2023-04-11T23:28:29.058Z,61.57
2023-04-11T23:30:56.612Z,61.38
2023-04-11T23:33:25.679Z,62.13
2023-04-11T23:35:53.474Z,62.46
2023-04-11T23:38:21.489Z,62.97
2023-04-11T23:40:49.318Z,62.45
2023-04-11T23:43:16.999Z,61.44
2023-04-11T23:45:44.490Z,61.13
2023-04-11T23:48:11.938Z,60.81
2023-04-11T23:50:39.592Z,61.04
2023-04-11T23:53:06.978Z,61.38
2023-04-11T23:55:35.178Z,61.51
2023-04-11T23:58:03.706Z,61.81
